createdAt,value
2018-03-02T00:01:05.637Z,99451.78
2018-03-02T00:03:34.034Z,99446.52
2018-03-02T00:06:02.427Z,99444.50
2018-03-02T00:08:30.773Z,99443.11
2018-03-02T00:10:59.092Z,99433.88
2018-03-02T00:13:27.452Z,99426.98
2018-03-02T00:15:55.793Z,99432.73
2018-03-02T00:18:24.204Z,99418.89
2018-03-02T00:20:52.519Z,99421.41
2018-03-02T00:23:20.861Z,99416.45
2018-03-02T00:25:49.275Z,99413.45
2018-03-02T00:28:17.624Z,99407.97
2018-03-02T00:30:46.057Z,99405.98
2018-03-02T00:33:14.449Z,99403.73
2018-03-02T00:35:42.797Z,99405.39
2018-03-02T00:38:11.154Z,99388.43
2018-03-02T00:40:39.517Z,99383.48
2018-03-02T00:43:08.352Z,99387.77
2018-03-02T00:45:36.702Z,99393.16
2018-03-02T00:48:05.098Z,99382.84
2018-03-02T00:50:33.462Z,99382.52
2018-03-02T00:53:01.816Z,99375.23
2018-03-02T00:55:30.202Z,99375.45
2018-03-02T00:57:58.526Z,99376.09
2018-03-02T01:00:26.864Z,99363.70
2018-03-02T01:02:55.200Z,99372.15
2018-03-02T01:05:23.642Z,99361.72
2018-03-02T01:07:52.058Z,99356.30
2018-03-02T01:10:20.404Z,99362.39
2018-03-02T01:12:48.847Z,99356.67
2018-03-02T01:15:17.208Z,99351.23
2018-03-02T01:17:45.603Z,99349.80
2018-03-02T01:20:13.947Z,99345.56
2018-03-02T01:22:42.375Z,99339.38
2018-03-02T01:25:11.114Z,99332.70
2018-03-02T01:27:39.447Z,99328.07
2018-03-02T01:30:07.778Z,99324.67
2018-03-02T01:32:36.120Z,99317.47
2018-03-02T01:35:04.448Z,99320.91
2018-03-02T01:37:32.860Z,99319.91
2018-03-02T01:40:01.227Z,99309.98
2018-03-02T01:42:29.578Z,99309.75
2018-03-02T01:44:57.969Z,99315.09
2018-03-02T01:47:26.409Z,99305.80
2018-03-02T01:49:54.767Z,99298.63
2018-03-02T01:52:23.187Z,99298.08
2018-03-02T01:54:51.550Z,99296.78
2018-03-02T01:57:19.972Z,99298.03
2018-03-02T01:59:48.372Z,99290.34
2018-03-02T02:02:16.741Z,99285.88
2018-03-02T02:04:45.083Z,99281.52
2018-03-02T02:07:13.443Z,99272.95
2018-03-02T02:09:41.804Z,99274.66
2018-03-02T02:12:10.147Z,99271.02
2018-03-02T02:14:38.500Z,99269.97
2018-03-02T02:17:06.856Z,99274.77
2018-03-02T02:19:35.297Z,99269.59
2018-03-02T02:22:03.705Z,99269.09
2018-03-02T02:24:32.070Z,99267.65
2018-03-02T02:27:00.393Z,99267.91
2018-03-02T02:29:28.728Z,99262.41
2018-03-02T02:31:57.146Z,99252.45
2018-03-02T02:34:25.556Z,99253.14
2018-03-02T02:36:53.936Z,99257.62
2018-03-02T02:39:22.285Z,99255.53
2018-03-02T02:41:50.678Z,99250.00
2018-03-02T02:44:19.011Z,99254.70
2018-03-02T02:46:47.746Z,99251.30
2018-03-02T02:49:16.105Z,99258.04
2018-03-02T02:51:44.436Z,99251.72
2018-03-02T02:54:12.805Z,99251.17
2018-03-02T02:56:41.199Z,99248.41
2018-03-02T02:59:09.547Z,99251.36
2018-03-02T03:01:37.870Z,99251.02
2018-03-02T03:04:06.212Z,99255.50
2018-03-02T03:06:34.546Z,99263.03
2018-03-02T03:09:02.876Z,99252.31
2018-03-02T03:11:31.224Z,99247.58
2018-03-02T03:13:59.558Z,99238.50
2018-03-02T03:16:27.943Z,99241.41
2018-03-02T03:18:56.265Z,99249.38
2018-03-02T03:21:24.744Z,99248.69
2018-03-02T03:23:53.060Z,99249.78
2018-03-02T03:26:21.507Z,99239.91
2018-03-02T03:28:49.865Z,99249.44
2018-03-02T03:31:18.368Z,99246.64
2018-03-02T03:33:46.705Z,99245.66
2018-03-02T03:36:15.064Z,99248.50
2018-03-02T03:38:43.393Z,99246.34
2018-03-02T03:41:11.733Z,99245.70
2018-03-02T03:43:40.059Z,99238.42
2018-03-02T03:46:08.522Z,99233.24
2018-03-02T03:48:36.853Z,99240.19
2018-03-02T03:51:05.191Z,99235.98
2018-03-02T03:53:33.530Z,99239.37
2018-03-02T03:56:01.872Z,99232.16
2018-03-02T03:58:30.216Z,99230.72
2018-03-02T04:00:58.565Z,99221.25
2018-03-02T04:03:26.918Z,99227.77
2018-03-02T04:05:55.258Z,99230.86
2018-03-02T04:08:23.629Z,99225.93
2018-03-02T04:10:52.513Z,99221.01
2018-03-02T04:13:20.951Z,99218.64
2018-03-02T04:15:49.605Z,99207.70
2018-03-02T04:18:18.482Z,99205.61
2018-03-02T04:20:47.068Z,99198.33
2018-03-02T04:23:15.396Z,99195.19
2018-03-02T04:25:43.733Z,99205.89
2018-03-02T04:28:12.409Z,99203.61
2018-03-02T04:30:40.777Z,99198.92
2018-03-02T04:33:09.214Z,99196.48
2018-03-02T04:35:37.596Z,99193.64
2018-03-02T04:38:05.938Z,99190.31
2018-03-02T04:40:34.289Z,99190.34
2018-03-02T04:43:02.626Z,99185.33
2018-03-02T04:45:30.958Z,99186.08
2018-03-02T04:47:59.297Z,99187.12
2018-03-02T04:50:27.677Z,99181.39
2018-03-02T04:52:56.000Z,99171.34
2018-03-02T04:55:24.412Z,99162.67
2018-03-02T04:57:52.744Z,99161.42
2018-03-02T05:00:21.088Z,99160.58
2018-03-02T05:02:49.421Z,99164.16
2018-03-02T05:05:17.810Z,99153.65
2018-03-02T05:07:47.123Z,99161.33
2018-03-02T05:10:15.505Z,99158.48
2018-03-02T05:12:43.890Z,99148.22
2018-03-02T05:15:12.234Z,99143.34
2018-03-02T05:17:40.571Z,99140.62
2018-03-02T05:20:08.921Z,99139.86
2018-03-02T05:22:37.258Z,99141.02
2018-03-02T05:25:05.640Z,99138.68
2018-03-02T05:27:33.977Z,99137.48
2018-03-02T05:30:02.422Z,99138.22
2018-03-02T05:32:30.870Z,99136.84
2018-03-02T05:34:59.239Z,99130.21
2018-03-02T05:37:27.621Z,99128.42
2018-03-02T05:39:55.964Z,99127.03
2018-03-02T05:42:24.329Z,99136.52
2018-03-02T05:44:52.671Z,99132.13
2018-03-02T05:47:21.029Z,99133.64
2018-03-02T05:49:49.336Z,99128.53
2018-03-02T05:52:17.677Z,99134.27
2018-03-02T05:54:45.999Z,99141.36
2018-03-02T05:57:14.441Z,99144.32
2018-03-02T05:59:42.771Z,99134.51
2018-03-02T06:02:11.123Z,99139.63
2018-03-02T06:04:39.517Z,99133.17
2018-03-02T06:07:07.923Z,99129.45
2018-03-02T06:09:36.252Z,99129.90
2018-03-02T06:12:04.631Z,99123.19
2018-03-02T06:14:32.962Z,99122.53
2018-03-02T06:17:01.296Z,99129.03
2018-03-02T06:19:29.667Z,99125.11
2018-03-02T06:21:58.108Z,99126.95
2018-03-02T06:24:26.475Z,99119.56
2018-03-02T06:26:54.861Z,99118.44
2018-03-02T06:29:23.218Z,99112.59
2018-03-02T06:31:51.626Z,99107.05
2018-03-02T06:34:20.046Z,99107.44
2018-03-02T06:36:48.410Z,99104.60
2018-03-02T06:39:16.754Z,99100.73
2018-03-02T06:41:45.086Z,99097.19
2018-03-02T06:44:13.487Z,99089.30
2018-03-02T06:46:41.827Z,99091.36
2018-03-02T06:49:10.154Z,99088.52
2018-03-02T06:51:38.511Z,99084.95
2018-03-02T06:54:06.947Z,99088.80
2018-03-02T06:56:35.338Z,99088.28
2018-03-02T06:59:03.737Z,99097.26
2018-03-02T07:01:32.075Z,99093.53
2018-03-02T07:04:00.410Z,99085.43
2018-03-02T07:06:28.761Z,99083.78
2018-03-02T07:08:57.121Z,99082.03
2018-03-02T07:11:25.524Z,99084.00
2018-03-02T07:13:53.916Z,99079.09
2018-03-02T07:16:22.292Z,99075.17
2018-03-02T07:18:50.670Z,99069.70
2018-03-02T07:21:18.986Z,99078.24
2018-03-02T07:23:47.372Z,99079.91
2018-03-02T07:26:15.705Z,99065.06
2018-03-02T07:28:44.042Z,99066.34
2018-03-02T07:31:12.426Z,99057.42
2018-03-02T07:33:40.758Z,99047.72
2018-03-02T07:36:09.096Z,99043.83
2018-03-02T07:38:37.499Z,99033.52
2018-03-02T07:41:05.830Z,99024.87
2018-03-02T07:43:34.269Z,99022.64
2018-03-02T07:46:02.584Z,99022.84
2018-03-02T07:48:30.910Z,99016.23
2018-03-02T07:50:59.258Z,99019.33
2018-03-02T07:53:27.596Z,99017.48
2018-03-02T07:55:55.948Z,99014.50
2018-03-02T07:58:24.299Z,99014.20
2018-03-02T08:00:52.658Z,99008.48
2018-03-02T08:03:21.071Z,98997.96
2018-03-02T08:05:49.529Z,98989.28
2018-03-02T08:08:17.853Z,98978.37
2018-03-02T08:10:46.207Z,98980.41
2018-03-02T08:13:14.536Z,98976.83
2018-03-02T08:15:42.986Z,98966.41
2018-03-02T08:18:11.321Z,98967.12
2018-03-02T08:20:39.657Z,98963.17
2018-03-02T08:23:07.971Z,98957.23
2018-03-02T08:25:36.285Z,98950.16
2018-03-02T08:28:04.628Z,98942.17
2018-03-02T08:30:33.027Z,98952.38
2018-03-02T08:33:01.357Z,98940.00
2018-03-02T08:35:29.681Z,98939.50
2018-03-02T08:37:58.014Z,98937.23
2018-03-02T08:40:26.334Z,98927.61
2018-03-02T08:42:54.669Z,98924.84
2018-03-02T08:45:23.015Z,98920.78
2018-03-02T08:47:51.460Z,98923.60
2018-03-02T08:50:19.861Z,98914.30
2018-03-02T08:52:48.166Z,98906.78
2018-03-02T08:55:16.584Z,98914.44
2018-03-02T08:57:44.941Z,98905.27
2018-03-02T09:00:13.240Z,98909.70
2018-03-02T09:02:41.562Z,98914.23
2018-03-02T09:05:09.894Z,98899.50
2018-03-02T09:07:38.207Z,98894.50
2018-03-02T09:10:06.696Z,98898.91
2018-03-02T09:12:34.977Z,98892.44
2018-03-02T09:15:03.362Z,98886.93
2018-03-02T09:17:31.751Z,98877.25
2018-03-02T09:20:00.151Z,98875.06
2018-03-02T09:22:28.472Z,98876.40
2018-03-02T09:24:56.812Z,98865.39
2018-03-02T09:27:25.126Z,98859.91
2018-03-02T09:29:53.440Z,98854.39
2018-03-02T09:32:21.777Z,98849.32
2018-03-02T09:34:50.103Z,98842.83
2018-03-02T09:37:18.440Z,98843.05
2018-03-02T09:39:46.868Z,98841.33
2018-03-02T09:42:15.287Z,98843.41
2018-03-02T09:44:43.666Z,98842.83
2018-03-02T09:47:12.005Z,98830.36
2018-03-02T09:49:40.326Z,98827.55
2018-03-02T09:52:08.738Z,98826.01
2018-03-02T09:54:37.053Z,98818.81
2018-03-02T09:57:05.669Z,98816.06
2018-03-02T09:59:34.006Z,98809.02
2018-03-02T10:02:02.328Z,98810.91
2018-03-02T10:04:30.689Z,98817.84
2018-03-02T10:06:59.099Z,98813.47
2018-03-02T10:09:27.534Z,98820.80
2018-03-02T10:11:55.987Z,98806.09
2018-03-02T10:14:24.376Z,98796.32
2018-03-02T10:16:52.768Z,98796.18
2018-03-02T10:19:21.209Z,98796.47
2018-03-02T10:21:49.540Z,98796.88
2018-03-02T10:24:17.917Z,98784.64
2018-03-02T10:26:46.241Z,98787.80
2018-03-02T10:29:14.931Z,98786.37
2018-03-02T10:31:43.301Z,98781.48
2018-03-02T10:34:11.678Z,98789.85
2018-03-02T10:36:40.115Z,98785.16
2018-03-02T10:39:08.454Z,98789.61
2018-03-02T10:41:36.897Z,98788.35
2018-03-02T10:44:05.225Z,98774.56
2018-03-02T10:46:33.561Z,98775.39
2018-03-02T10:49:01.911Z,98777.50
2018-03-02T10:51:30.366Z,98770.89
2018-03-02T10:53:58.747Z,98770.44
2018-03-02T10:56:27.062Z,98765.03
2018-03-02T10:58:55.406Z,98755.23
2018-03-02T11:01:26.456Z,98755.77
2018-03-02T11:04:00.336Z,98760.00
2018-03-02T11:06:28.645Z,98748.84
2018-03-02T11:08:57.301Z,98745.92
2018-03-02T11:11:25.713Z,98735.84
2018-03-02T11:13:54.049Z,98734.24
2018-03-02T11:16:22.377Z,98726.97
2018-03-02T11:18:50.705Z,98728.92
2018-03-02T11:21:19.023Z,98722.55
2018-03-02T11:23:47.514Z,98715.74
2018-03-02T11:26:15.850Z,98720.20
2018-03-02T11:28:44.295Z,98716.47
2018-03-02T11:31:12.639Z,98707.22
2018-03-02T11:33:41.012Z,98714.88
2018-03-02T11:36:09.958Z,98702.83
2018-03-02T11:38:38.372Z,98696.36
2018-03-02T11:41:06.714Z,98703.89
2018-03-02T11:43:35.087Z,98695.70
2018-03-02T11:46:03.491Z,98696.47
2018-03-02T11:48:31.908Z,98684.00
2018-03-02T11:51:00.294Z,98676.89
2018-03-02T11:53:28.613Z,98680.88
2018-03-02T11:55:56.938Z,98683.88
2018-03-02T11:58:25.271Z,98671.67
2018-03-02T12:00:53.609Z,98680.67
2018-03-02T12:03:21.960Z,98677.84
2018-03-02T12:05:50.266Z,98672.13
2018-03-02T12:08:18.618Z,98659.97
2018-03-02T12:10:46.937Z,98674.05
2018-03-02T12:13:15.306Z,98664.69
2018-03-02T12:15:43.708Z,98660.77
2018-03-02T12:18:12.030Z,98664.00
2018-03-02T12:20:40.381Z,98659.58
2018-03-02T12:23:08.758Z,98663.00
2018-03-02T12:25:37.176Z,98653.31
2018-03-02T12:28:05.480Z,98652.81
2018-03-02T12:30:33.809Z,98649.77
2018-03-02T12:33:02.292Z,98652.41
2018-03-02T12:35:30.606Z,98652.02
2018-03-02T12:37:59.038Z,98650.69
2018-03-02T12:40:28.650Z,98650.68
2018-03-02T12:42:57.071Z,98651.70
2018-03-02T12:45:25.412Z,98658.73
2018-03-02T12:47:53.741Z,98654.38
2018-03-02T12:50:23.033Z,98648.33
2018-03-02T12:52:51.434Z,98642.64
2018-03-02T12:55:19.825Z,98641.20
2018-03-02T12:57:48.206Z,98634.72
2018-03-02T13:00:16.512Z,98641.30
2018-03-02T13:02:44.892Z,98636.53
2018-03-02T13:05:13.279Z,98638.44
2018-03-02T13:07:41.670Z,98640.70
2018-03-02T13:10:10.061Z,98632.29
2018-03-02T13:12:38.392Z,98633.64
2018-03-02T13:15:06.719Z,98638.75
2018-03-02T13:17:35.146Z,98632.06
2018-03-02T13:20:03.464Z,98626.02
2018-03-02T13:22:40.762Z,98632.08
2018-03-02T13:25:09.131Z,98629.09
2018-03-02T13:27:49.402Z,98631.91
2018-03-02T13:30:17.721Z,98624.47
2018-03-02T13:35:45.072Z,98610.91
2018-03-02T13:38:13.411Z,98613.11
2018-03-02T13:40:53.677Z,98615.18
2018-03-02T13:43:22.017Z,98598.28
2018-03-02T13:45:50.904Z,98613.59
2018-03-02T13:48:40.009Z,98607.61
2018-03-02T13:51:08.438Z,98600.48
2018-03-02T13:53:36.770Z,98607.07
2018-03-02T13:56:05.088Z,98597.61
2018-03-02T13:58:33.418Z,98604.49
2018-03-02T14:01:01.732Z,98609.75
2018-03-02T14:03:42.011Z,98612.56
2018-03-02T14:06:10.343Z,98617.33
2018-03-02T14:08:38.656Z,98608.23
2018-03-02T14:11:07.022Z,98613.59
2018-03-02T14:13:35.438Z,98618.28
2018-03-02T14:16:03.747Z,98614.65
2018-03-02T14:18:32.111Z,98617.52
2018-03-02T14:21:00.444Z,98622.52
2018-03-02T14:23:28.750Z,98617.24
2018-03-02T14:25:57.100Z,98617.50
2018-03-02T14:28:25.468Z,98608.56
2018-03-02T14:30:53.803Z,98613.49
2018-03-02T14:33:22.146Z,98603.72
2018-03-02T14:35:50.704Z,98622.59
2018-03-02T14:38:19.017Z,98615.70
2018-03-02T14:40:47.339Z,98615.77
2018-03-02T14:43:15.674Z,98631.94
2018-03-02T14:45:44.132Z,98635.89
2018-03-02T14:48:12.497Z,98628.73
2018-03-02T14:50:40.858Z,98623.23
2018-03-02T14:53:09.180Z,98625.51
2018-03-02T14:55:37.536Z,98623.46
2018-03-02T14:58:05.881Z,98626.22
2018-03-02T15:00:34.248Z,98618.45
2018-03-02T15:03:02.620Z,98615.40
2018-03-02T15:05:31.039Z,98626.00
2018-03-02T15:07:59.397Z,98624.72
2018-03-02T15:10:27.833Z,98622.13
2018-03-02T15:12:56.216Z,98617.02
2018-03-02T15:15:24.579Z,98617.09
2018-03-02T15:17:53.023Z,98617.12
2018-03-02T15:20:21.504Z,98624.20
2018-03-02T15:22:49.842Z,98626.02
2018-03-02T15:25:18.181Z,98613.89
2018-03-02T15:27:46.517Z,98617.94
2018-03-02T15:30:14.913Z,98620.43
2018-03-02T15:32:43.246Z,98623.71
2018-03-02T15:35:11.588Z,98625.78
2018-03-02T15:37:39.922Z,98621.62
2018-03-02T15:40:08.249Z,98623.75
2018-03-02T15:42:36.665Z,98626.80
2018-03-02T15:45:05.011Z,98630.16
2018-03-02T15:47:33.502Z,98632.34
2018-03-02T15:50:01.862Z,98630.23
2018-03-02T15:52:30.172Z,98630.78
2018-03-02T15:54:58.506Z,98632.66
2018-03-02T15:57:26.843Z,98632.62
2018-03-02T15:59:55.282Z,98631.58
2018-03-02T16:02:23.653Z,98630.83
2018-03-02T16:04:51.999Z,98638.12
2018-03-02T16:07:20.343Z,98638.52
2018-03-02T16:09:48.687Z,98643.92
2018-03-02T16:12:17.026Z,98654.02
2018-03-02T16:14:45.371Z,98658.75
2018-03-02T16:17:13.709Z,98672.70
2018-03-02T16:19:42.076Z,98668.64
2018-03-02T16:22:10.476Z,98672.86
2018-03-02T16:24:38.813Z,98675.73
2018-03-02T16:27:07.137Z,98678.48
2018-03-02T16:29:35.470Z,98684.41
2018-03-02T16:32:03.859Z,98685.66
2018-03-02T16:34:32.200Z,98684.97
2018-03-02T16:37:00.515Z,98682.77
2018-03-02T16:39:28.860Z,98685.64
2018-03-02T16:41:57.238Z,98690.20
2018-03-02T16:44:25.663Z,98688.66
2018-03-02T16:46:54.005Z,98684.62
2018-03-02T16:49:22.386Z,98689.28
2018-03-02T16:51:50.801Z,98698.56
2018-03-02T16:54:19.277Z,98701.42
2018-03-02T16:56:47.587Z,98713.29
2018-03-02T16:59:15.964Z,98709.59
2018-03-02T17:01:44.300Z,98706.50
2018-03-02T17:04:12.687Z,98713.86
2018-03-02T17:06:41.039Z,98716.19
2018-03-02T17:09:09.366Z,98720.13
2018-03-02T17:11:37.717Z,98731.93
2018-03-02T17:14:06.050Z,98732.05
2018-03-02T17:16:34.388Z,98733.40
2018-03-02T17:19:02.710Z,98740.75
2018-03-02T17:21:31.071Z,98743.25
2018-03-02T17:23:59.416Z,98752.43
2018-03-02T17:26:27.750Z,98763.86
2018-03-02T17:28:56.078Z,98764.00
2018-03-02T17:31:24.437Z,98778.31
2018-03-02T17:33:52.769Z,98781.63
2018-03-02T17:36:23.128Z,98791.41
2018-03-02T17:38:56.491Z,98799.97
2018-03-02T17:41:24.972Z,98797.89
2018-03-02T17:43:53.452Z,98798.02
2018-03-02T17:46:21.798Z,98794.28
2018-03-02T17:48:50.159Z,98804.61
2018-03-02T17:51:18.477Z,98801.08
2018-03-02T17:53:46.829Z,98807.58
2018-03-02T17:56:15.153Z,98803.76
2018-03-02T17:58:43.487Z,98810.38
2018-03-02T18:01:11.833Z,98815.72
2018-03-02T18:03:40.166Z,98815.08
2018-03-02T18:06:08.514Z,98815.81
2018-03-02T18:08:36.845Z,98819.41
2018-03-02T18:11:05.200Z,98818.58
2018-03-02T18:13:33.567Z,98821.88
2018-03-02T18:16:01.965Z,98828.67
2018-03-02T18:18:30.299Z,98836.81
2018-03-02T18:20:58.636Z,98830.20
2018-03-02T18:23:26.986Z,98841.87
2018-03-02T18:25:55.315Z,98838.30
2018-03-02T18:28:23.719Z,98842.57
2018-03-02T18:30:52.063Z,98848.64
2018-03-02T18:33:20.410Z,98858.05
2018-03-02T18:35:48.728Z,98857.86
2018-03-02T18:38:17.836Z,98859.88
2018-03-02T18:40:46.160Z,98862.42
2018-03-02T18:43:14.517Z,98862.89
2018-03-02T18:45:42.846Z,98859.14
2018-03-02T18:48:11.250Z,98865.70
2018-03-02T18:50:39.642Z,98870.22
2018-03-02T18:53:08.034Z,98871.41
2018-03-02T18:55:36.364Z,98872.65
2018-03-02T18:58:04.697Z,98874.96
2018-03-02T19:00:33.109Z,98876.22
2018-03-02T19:03:01.501Z,98881.46
2018-03-02T19:05:29.833Z,98885.47
2018-03-02T19:07:58.167Z,98883.41
2018-03-02T19:10:26.612Z,98888.47
2018-03-02T19:12:54.982Z,98888.19
2018-03-02T19:15:23.386Z,98882.20
2018-03-02T19:17:51.918Z,98880.16
2018-03-02T19:20:20.253Z,98882.44
2018-03-02T19:22:48.643Z,98887.73
2018-03-02T19:25:17.007Z,98885.97
2018-03-02T19:27:45.425Z,98890.48
2018-03-02T19:30:13.777Z,98889.25
2018-03-02T19:32:42.107Z,98893.17
2018-03-02T19:35:10.474Z,98889.76
2018-03-02T19:37:38.798Z,98893.45
2018-03-02T19:40:07.135Z,98892.66
2018-03-02T19:42:35.466Z,98899.58
2018-03-02T19:45:03.859Z,98902.78
2018-03-02T19:47:32.275Z,98906.30
2018-03-02T19:50:00.617Z,98907.08
2018-03-02T19:52:28.966Z,98907.48
2018-03-02T19:54:57.344Z,98903.27
2018-03-02T19:57:25.698Z,98902.38
2018-03-02T19:59:54.045Z,98903.81
2018-03-02T20:02:22.397Z,98904.31
2018-03-02T20:04:50.725Z,98911.80
2018-03-02T20:07:19.185Z,98906.41
2018-03-02T20:09:47.506Z,98909.03
2018-03-02T20:12:15.898Z,98906.47
2018-03-02T20:14:44.210Z,98907.17
2018-03-02T20:17:12.713Z,98912.45
2018-03-02T20:19:41.049Z,98912.63
2018-03-02T20:22:09.436Z,98913.58
2018-03-02T20:24:37.830Z,98913.50
2018-03-02T20:27:06.216Z,98919.49
2018-03-02T20:29:34.623Z,98929.18
2018-03-02T20:32:02.948Z,98931.95
2018-03-02T20:34:31.300Z,98931.47
2018-03-02T20:36:59.670Z,98930.38
2018-03-02T20:39:28.095Z,98926.50
2018-03-02T20:41:56.501Z,98919.77
2018-03-02T20:44:24.831Z,98924.10
2018-03-02T20:46:53.212Z,98926.33
2018-03-02T20:49:21.544Z,98932.39
2018-03-02T20:51:49.947Z,98930.91
2018-03-02T20:54:18.282Z,98931.20
2018-03-02T20:56:46.629Z,98922.97
2018-03-02T20:59:14.973Z,98924.98
2018-03-02T21:01:43.295Z,98935.92
2018-03-02T21:04:11.701Z,98934.23
2018-03-02T21:06:40.045Z,98934.64
2018-03-02T21:09:08.385Z,98936.37
2018-03-02T21:11:36.720Z,98932.95
2018-03-02T21:14:05.068Z,98930.66
2018-03-02T21:16:33.391Z,98936.75
2018-03-02T21:19:01.713Z,98930.64
2018-03-02T21:21:30.038Z,98915.98
2018-03-02T21:23:58.568Z,98923.23
2018-03-02T21:26:26.911Z,98923.21
2018-03-02T21:28:55.299Z,98920.58
2018-03-02T21:31:23.627Z,98925.70
2018-03-02T21:33:52.041Z,98922.70
2018-03-02T21:36:20.514Z,98921.20
2018-03-02T21:38:48.847Z,98916.89
2018-03-02T21:41:17.186Z,98916.58
2018-03-02T21:43:45.604Z,98917.80
2018-03-02T21:46:13.929Z,98917.29
2018-03-02T21:48:42.249Z,98917.69
2018-03-02T21:51:10.595Z,98914.48
2018-03-02T21:53:38.935Z,98915.98
2018-03-02T21:56:07.383Z,98914.48
2018-03-02T21:58:35.691Z,98910.18
2018-03-02T22:01:04.025Z,98911.36
2018-03-02T22:03:32.361Z,98916.48
2018-03-02T22:06:00.692Z,98909.48
2018-03-02T22:08:29.124Z,98910.27
2018-03-02T22:10:57.485Z,98909.47
2018-03-02T22:13:26.923Z,98914.98
2018-03-02T22:15:55.264Z,98905.27
2018-03-02T22:18:23.914Z,98904.86
2018-03-02T22:20:52.297Z,98911.13
2018-03-02T22:23:20.748Z,98896.89
2018-03-02T22:25:49.184Z,98901.09
2018-03-02T22:28:17.511Z,98902.39
2018-03-02T22:30:45.853Z,98896.48
2018-03-02T22:33:14.288Z,98894.17
2018-03-02T22:35:42.605Z,98899.59
2018-03-02T22:38:11.027Z,98893.38
2018-03-02T22:40:39.361Z,98886.95
2018-03-02T22:43:07.686Z,98883.54
2018-03-02T22:45:36.090Z,98882.94
2018-03-02T22:48:04.408Z,98878.63
2018-03-02T22:50:32.741Z,98881.34
2018-03-02T22:53:01.115Z,98876.83
2018-03-02T22:55:29.460Z,98882.76
2018-03-02T22:57:57.856Z,98888.04
2018-03-02T23:00:26.196Z,98884.12
2018-03-02T23:02:54.977Z,98882.03
2018-03-02T23:05:23.315Z,98894.14
2018-03-02T23:07:51.670Z,98893.94
2018-03-02T23:10:20.028Z,98889.52
2018-03-02T23:12:48.354Z,98891.41
2018-03-02T23:15:16.704Z,98888.72
2018-03-02T23:17:45.100Z,98893.00
2018-03-02T23:20:13.433Z,98890.38
2018-03-02T23:22:41.785Z,98893.09
2018-03-02T23:25:10.118Z,98897.37
2018-03-02T23:27:38.450Z,98899.25
2018-03-02T23:30:06.887Z,98898.43
2018-03-02T23:32:35.239Z,98895.53
2018-03-02T23:35:03.548Z,98896.59
2018-03-02T23:37:31.935Z,98893.70
2018-03-02T23:40:00.299Z,98898.30
2018-03-02T23:42:28.727Z,98904.48
2018-03-02T23:44:57.108Z,98900.89
2018-03-02T23:47:25.469Z,98905.27
2018-03-02T23:49:53.885Z,98911.45
2018-03-02T23:52:23.460Z,98902.95
2018-03-02T23:54:51.810Z,98909.06
2018-03-02T23:57:20.157Z,98902.74
2018-03-02T23:59:48.578Z,98903.43
